Time;durP1;ratioP1;P1;durP2;ratioP2;P2;SDS_P1;SDS_P2;PMS_P1;PMS_P2;Temp;Humidity;BMP_temperature;BMP_pressure;BME280_temperature;BME280_humidity;BME280_pressure;Samples;Min_cycle;Max_cycle;Signal;HPM_P1;HPM_P2
2023/07/03 00:02:25;;;;;;;;;;;;;;;;;;5088923;28;19944;-67
2023/07/03 00:04:51;;;;;;;;;;;;;;;;;;5088388;28;20203;-67
2023/07/03 00:07:16;;;;;;;;;;;;;;;;;;5088696;28;20299;-67
2023/07/03 00:09:42;;;;;;;;;;;;;;;;;;5088799;28;19977;-67
2023/07/03 00:12:08;;;;;;;;;;;;;;;;;;5088699;28;19924;-67
2023/07/03 00:14:34;;;;;;;;;;;;;;;;;;5088846;28;19924;-67
2023/07/03 00:17:00;;;;;;;;;;;;;;;;;;5088791;28;19982;-67
2023/07/03 00:19:26;;;;;;;;;;;;;;;;;;5088206;28;19924;-67
2023/07/03 00:21:52;;;;;;;;;;;;;;;;;;5088584;28;20484;-67
2023/07/03 00:24:18;;;;;;;;;;;;;;;;;;5088626;28;20014;-67
2023/07/03 00:26:44;;;;;;;;;;;;;;;;;;5072390;28;19924;-67
2023/07/03 00:29:10;;;;;;;;;;;;;;;;;;5068561;28;19936;-67
2023/07/03 00:31:36;;;;;;;;;;;;;;;;;;5080030;28;19924;-67
2023/07/03 00:34:02;;;;;;;;;;;;;;;;;;5088129;28;19927;-67
2023/07/03 00:36:27;;;;;;;;;;;;;;;;;;5088614;28;20308;-67
2023/07/03 00:38:57;;;;;;;;;;;;;;;;;;5088915;28;20389;-67
2023/07/03 00:41:23;;;;;;;;;;;;;;;;;;5087879;28;20015;-67
2023/07/03 00:43:49;;;;;;;;;;;;;;;;;;5088585;28;20015;-67
2023/07/03 00:46:14;;;;;;;;;;;;;;;;;;5088432;28;20297;-67
2023/07/03 00:48:40;;;;;;;;;;;;;;;;;;5091645;28;20297;-67
2023/07/03 00:51:06;;;;;;;;;;;;;;;;;;5092023;28;19963;-67
2023/07/03 00:53:32;;;;;;;;;;;;;;;;;;5091971;28;19930;-67
2023/07/03 00:55:58;;;;;;;;;;;;;;;;;;5091527;28;19928;-67
2023/07/03 00:58:24;;;;;;;;;;;;;;;;;;5092061;28;19973;-67
2023/07/03 01:00:50;;;;;;;;;;;;;;;;;;5092102;28;19923;-67
2023/07/03 01:03:16;;;;;;;;;;;;;;;;;;5091449;28;19928;-67
2023/07/03 01:05:43;;;;;;;;;;;;;;;;;;5091819;28;19970;-67
2023/07/03 01:08:09;;;;;;;;;;;;;;;;;;5073725;28;20042;-67
2023/07/03 01:10:35;;;;;;;;;;;;;;;;;;5091313;28;19966;-67
2023/07/03 01:13:01;;;;;;;;;;;;;;;;;;5091870;28;19975;-67
2023/07/03 01:15:27;;;;;;;;;;;;;;;;;;5091488;28;19920;-67
2023/07/03 01:17:53;;;;;;;;;;;;;;;;;;5091098;28;19920;-67
2023/07/03 01:20:19;;;;;;;;;;;;;;;;;;5091560;28;20385;-67
2023/07/03 01:22:44;;;;;;;;;;;;;;;;;;5091658;28;19973;-67
2023/07/03 01:25:10;;;;;;;;;;;;;;;;;;5088323;28;20545;-67
2023/07/03 01:27:36;;;;;;;;;;;;;;;;;;5071041;28;19925;-67
2023/07/03 01:30:02;;;;;;;;;;;;;;;;;;5071323;28;19924;-67
2023/07/03 01:32:28;;;;;;;;;;;;;;;;;;5089785;28;19924;-67
2023/07/03 01:34:54;;;;;;;;;;;;;;;;;;5090916;28;20325;-67
2023/07/03 01:37:20;;;;;;;;;;;;;;;;;;5091098;28;19971;-67
2023/07/03 01:39:46;;;;;;;;;;;;;;;;;;5091411;28;20317;-67
2023/07/03 01:42:12;;;;;;;;;;;;;;;;;;5091008;28;19924;-67
2023/07/03 01:44:38;;;;;;;;;;;;;;;;;;5091388;28;19966;-67
2023/07/03 01:47:04;;;;;;;;;;;;;;;;;;5091121;28;19920;-67
2023/07/03 01:49:30;;;;;;;;;;;;;;;;;;5090304;28;19928;-67
2023/07/03 01:51:56;;;;;;;;;;;;;;;;;;5090880;28;20109;-67
2023/07/03 01:54:21;;;;;;;;;;;;;;;;;;5072518;28;20386;-67
2023/07/03 01:56:50;;;;;;;;;;;;;;;;;;5090479;28;19926;-67
2023/07/03 01:59:17;;;;;;;;;;;;;;;;;;5090969;28;19924;-67
2023/07/03 02:01:43;;;;;;;;;;;;;;;;;;5090997;28;20267;-67
2023/07/03 02:04:09;;;;;;;;;;;;;;;;;;5071159;28;19973;-67
2023/07/03 02:06:35;;;;;;;;;;;;;;;;;;5090825;28;19978;-67
2023/07/03 02:09:01;;;;;;;;;;;;;;;;;;5090316;28;20270;-67
2023/07/03 02:11:27;;;;;;;;;;;;;;;;;;5071807;28;19920;-67
2023/07/03 02:13:53;;;;;;;;;;;;;;;;;;5072091;28;19920;-67
2023/07/03 02:16:19;;;;;;;;;;;;;;;;;;5090673;28;20390;-67
2023/07/03 02:18:46;;;;;;;;;;;;;;;;;;5090043;28;20406;-67
2023/07/03 02:21:12;;;;;;;;;;;;;;;;;;5090483;28;20416;-67
2023/07/03 02:23:38;;;;;;;;;;;;;;;;;;5090322;28;19971;-67
2023/07/03 02:26:04;;;;;;;;;;;;;;;;;;5079699;28;19989;-67
2023/07/03 02:28:30;;;;;;;;;;;;;;;;;;5069951;28;20229;-67
2023/07/03 02:30:56;;;;;;;;;;;;;;;;;;5075756;28;19947;-67
2023/07/03 02:33:21;;;;;;;;;;;;;;;;;;5089696;28;20014;-67
2023/07/03 02:35:47;;;;;;;;;;;;;;;;;;5090355;28;19924;-67
2023/07/03 02:38:15;;;;;;;;;;;;;;;;;;5090124;28;19928;-67
2023/07/03 02:40:41;;;;;;;;;;;;;;;;;;5071419;28;20028;-67
2023/07/03 02:43:07;;;;;;;;;;;;;;;;;;5089826;28;20386;-67
2023/07/03 02:45:33;;;;;;;;;;;;;;;;;;5071437;28;20007;-67
2023/07/03 02:47:59;;;;;;;;;;;;;;;;;;5089372;28;19977;-67
2023/07/03 02:50:25;;;;;;;;;;;;;;;;;;5089742;28;19992;-67
2023/07/03 02:52:51;;;;;;;;;;;;;;;;;;5090032;28;19928;-67
2023/07/03 02:55:17;;;;;;;;;;;;;;;;;;5089091;28;20303;-67
2023/07/03 02:57:43;;;;;;;;;;;;;;;;;;5089837;28;19924;-67
2023/07/03 03:00:09;;;;;;;;;;;;;;;;;;5071576;28;20260;-67
2023/07/03 03:02:34;;;;;;;;;;;;;;;;;;5088933;28;20307;-67
2023/07/03 03:05:00;;;;;;;;;;;;;;;;;;5089705;28;19927;-67
2023/07/03 03:07:26;;;;;;;;;;;;;;;;;;5089238;28;19929;-67
2023/07/03 03:09:53;;;;;;;;;;;;;;;;;;5088549;28;20466;-67
2023/07/03 03:12:19;;;;;;;;;;;;;;;;;;5089688;28;20375;-67
2023/07/03 03:14:45;;;;;;;;;;;;;;;;;;5089778;28;19927;-67
2023/07/03 03:17:10;;;;;;;;;;;;;;;;;;5088895;28;20249;-67
2023/07/03 03:19:36;;;;;;;;;;;;;;;;;;5089580;28;19974;-67
2023/07/03 03:22:02;;;;;;;;;;;;;;;;;;5089404;28;19922;-67
2023/07/03 03:24:28;;;;;;;;;;;;;;;;;;5088553;28;20551;-67
2023/07/03 03:26:54;;;;;;;;;;;;;;;;;;5072067;28;19967;-67
2023/07/03 03:29:20;;;;;;;;;;;;;;;;;;5068872;28;20362;-67
2023/07/03 03:31:48;;;;;;;;;;;;;;;;;;5080791;28;20224;-67
2023/07/03 03:34:13;;;;;;;;;;;;;;;;;;5089120;28;19931;-67
2023/07/03 03:36:39;;;;;;;;;;;;;;;;;;5088944;28;19946;-67
2023/07/03 03:39:05;;;;;;;;;;;;;;;;;;5088737;28;19927;-67
2023/07/03 03:41:31;;;;;;;;;;;;;;;;;;5088861;28;20022;-67
2023/07/03 03:43:57;;;;;;;;;;;;;;;;;;5089113;28;19926;-67
2023/07/03 03:46:23;;;;;;;;;;;;;;;;;;5088646;28;19920;-67
2023/07/03 03:48:49;;;;;;;;;;;;;;;;;;5089089;28;19928;-67
2023/07/03 03:51:15;;;;;;;;;;;;;;;;;;5088933;28;19924;-67
2023/07/03 03:53:41;;;;;;;;;;;;;;;;;;5088469;28;19979;-67
2023/07/03 03:56:07;;;;;;;;;;;;;;;;;;5088764;28;20308;-67
2023/07/03 03:58:32;;;;;;;;;;;;;;;;;;5089192;28;19923;-67
2023/07/03 04:00:58;;;;;;;;;;;;;;;;;;5070550;28;20332;-67
2023/07/03 04:03:24;;;;;;;;;;;;;;;;;;5088946;28;19924;-67
2023/07/03 04:05:50;;;;;;;;;;;;;;;;;;5089134;28;19931;-67
2023/07/03 04:08:16;;;;;;;;;;;;;;;;;;5088673;28;20198;-67
2023/07/03 04:10:42;;;;;;;;;;;;;;;;;;5089038;28;20010;-67
2023/07/03 04:13:08;;;;;;;;;;;;;;;;;;5089338;28;20433;-67
2023/07/03 04:15:35;;;;;;;;;;;;;;;;;;5088211;28;20031;-67
2023/07/03 04:18:01;;;;;;;;;;;;;;;;;;5088497;28;20279;-68
2023/07/03 04:20:27;;;;;;;;;;;;;;;;;;5089106;28;19924;-69
2023/07/03 04:22:53;;;;;;;;;;;;;;;;;;5092178;28;19920;-69
2023/07/03 04:25:19;;;;;;;;;;;;;;;;;;5089188;28;19920;-69
2023/07/03 04:27:45;;;;;;;;;;;;;;;;;;5072011;28;19928;-69
2023/07/03 04:30:11;;;;;;;;;;;;;;;;;;5072095;28;19928;-69
2023/07/03 04:32:37;;;;;;;;;;;;;;;;;;5091871;28;19928;-69
2023/07/03 04:35:03;;;;;;;;;;;;;;;;;;5093342;28;19924;-69
2023/07/03 04:37:29;;;;;;;;;;;;;;;;;;5094188;28;20494;-69
2023/07/03 04:39:56;;;;;;;;;;;;;;;;;;5093035;28;20355;-69
2023/07/03 04:42:22;;;;;;;;;;;;;;;;;;5092503;28;20003;-69
2023/07/03 04:44:50;;;;;;;;;;;;;;;;;;5092514;28;20007;-69
2023/07/03 04:47:16;;;;;;;;;;;;;;;;;;5091736;28;19931;-69
2023/07/03 04:49:42;;;;;;;;;;;;;;;;;;5073784;28;20338;-69
2023/07/03 04:52:09;;;;;;;;;;;;;;;;;;5071934;28;19928;-69
2023/07/03 04:54:35;;;;;;;;;;;;;;;;;;5071289;28;20699;-67
2023/07/03 04:57:00;;;;;;;;;;;;;;;;;;5071854;28;19932;-67
2023/07/03 04:59:26;;;;;;;;;;;;;;;;;;5072131;28;19927;-67
2023/07/03 05:01:52;;;;;;;;;;;;;;;;;;5053012;28;19985;-67
2023/07/03 05:04:18;;;;;;;;;;;;;;;;;;5071571;28;19924;-67
2023/07/03 05:06:46;;;;;;;;;;;;;;;;;;5071295;28;19962;-67
2023/07/03 05:09:11;;;;;;;;;;;;;;;;;;5070396;28;19939;-67
2023/07/03 05:11:37;;;;;;;;;;;;;;;;;;5052302;28;20311;-67
2023/07/03 05:14:03;;;;;;;;;;;;;;;;;;5097542;28;19969;-67
2023/07/03 05:16:29;;;;;;;;;;;;;;;;;;5094250;28;20289;-67
2023/07/03 05:18:55;;;;;;;;;;;;;;;;;;5111718;28;20045;-67
2023/07/03 05:21:21;;;;;;;;;;;;;;;;;;5111334;28;19967;-67
2023/07/03 05:23:47;;;;;;;;;;;;;;;;;;5110801;28;19923;-67
2023/07/03 05:26:13;;;;;;;;;;;;;;;;;;5092884;28;19935;-67
2023/07/03 05:28:39;;;;;;;;;;;;;;;;;;5055696;28;19924;-67
2023/07/03 05:31:05;;;;;;;;;;;;;;;;;;5055695;28;19920;-69
2023/07/03 05:33:31;;;;;;;;;;;;;;;;;;5067265;28;20371;-69
2023/07/03 05:35:57;;;;;;;;;;;;;;;;;;5090573;28;19927;-69
2023/07/03 05:38:22;;;;;;;;;;;;;;;;;;5089827;28;19946;-66
2023/07/03 05:40:50;;;;;;;;;;;;;;;;;;5111271;28;19943;-67
2023/07/03 05:43:15;;;;;;;;;;;;;;;;;;5110572;28;19927;-67
2023/07/03 05:45:41;;;;;;;;;;;;;;;;;;5062351;28;19928;-67
2023/07/03 05:48:07;;;;;;;;;;;;;;;;;;5090546;28;20430;-67
2023/07/03 05:50:33;;;;;;;;;;;;;;;;;;5102492;28;19967;-67
2023/07/03 05:52:59;;;;;;;;;;;;;;;;;;5096055;28;20451;-67
2023/07/03 05:55:25;;;;;;;;;;;;;;;;;;5110909;28;20121;-67
2023/07/03 05:57:51;;;;;;;;;;;;;;;;;;5110322;28;20408;-68
2023/07/03 06:00:17;;;;;;;;;;;;;;;;;;5109408;28;20393;-67
2023/07/03 06:02:43;;;;;;;;;;;;;;;;;;5090461;28;19927;-66
2023/07/03 06:05:09;;;;;;;;;;;;;;;;;;5097032;28;19920;-66
2023/07/03 06:07:35;;;;;;;;;;;;;;;;;;5110205;28;20016;-67
2023/07/03 06:10:00;;;;;;;;;;;;;;;;;;5091999;28;20465;-66
2023/07/03 06:12:29;;;;;;;;;;;;;;;;;;5109172;28;19927;-66
2023/07/03 06:14:55;;;;;;;;;;;;;;;;;;5088492;28;19923;-67
2023/07/03 06:17:21;;;;;;;;;;;;;;;;;;5071321;28;20023;-66
2023/07/03 06:19:47;;;;;;;;;;;;;;;;;;5090027;28;19934;-67
2023/07/03 06:22:13;;;;;;;;;;;;;;;;;;5104888;28;19927;-67
2023/07/03 06:24:39;;;;;;;;;;;;;;;;;;5107727;28;19924;-67
2023/07/03 06:27:06;;;;;;;;;;;;;;;;;;5089801;28;20283;-67
2023/07/03 06:29:32;;;;;;;;;;;;;;;;;;5085534;28;20427;-68
2023/07/03 06:31:58;;;;;;;;;;;;;;;;;;5090205;28;19924;-64
2023/07/03 06:34:24;;;;;;;;;;;;;;;;;;5103661;28;19963;-66
2023/07/03 06:36:50;;;;;;;;;;;;;;;;;;5097961;28;19923;-65
2023/07/03 06:39:16;;;;;;;;;;;;;;;;;;5094401;28;19920;-65
2023/07/03 06:41:42;;;;;;;;;;;;;;;;;;5098347;28;20062;-65
2023/07/03 06:44:08;;;;;;;;;;;;;;;;;;5093058;28;19924;-64
2023/07/03 06:46:33;;;;;;;;;;;;;;;;;;5098353;28;19994;-65
2023/07/03 06:48:59;;;;;;;;;;;;;;;;;;5100459;28;19924;-64
2023/07/03 06:51:25;;;;;;;;;;;;;;;;;;5092529;28;19994;-67
2023/07/03 06:53:51;;;;;;;;;;;;;;;;;;5097879;28;19928;-67
2023/07/03 06:56:17;;;;;;;;;;;;;;;;;;5107673;28;19928;-67
2023/07/03 06:58:43;;;;;;;;;;;;;;;;;;5098103;28;19920;-65
2023/07/03 07:01:09;;;;;;;;;;;;;;;;;;5095494;28;19923;-64
2023/07/03 07:03:35;;;;;;;;;;;;;;;;;;5081524;28;19924;-63
2023/07/03 07:06:01;;;;;;;;;;;;;;;;;;5092306;28;19932;-65
2023/07/03 07:08:27;;;;;;;;;;;;;;;;;;5089258;28;19978;-65
2023/07/03 07:10:53;;;;;;;;;;;;;;;;;;5101491;28;19924;-65
2023/07/03 07:13:19;;;;;;;;;;;;;;;;;;5094911;28;19923;-65
2023/07/03 07:15:45;;;;;;;;;;;;;;;;;;5110498;28;19947;-65
2023/07/03 07:18:12;;;;;;;;;;;;;;;;;;5109791;28;19950;-68
2023/07/03 07:20:38;;;;;;;;;;;;;;;;;;5090497;28;20406;-65
2023/07/03 07:23:03;;;;;;;;;;;;;;;;;;5096742;28;20637;-66
2023/07/03 07:25:29;;;;;;;;;;;;;;;;;;5096067;28;19967;-68
2023/07/03 07:27:55;;;;;;;;;;;;;;;;;;5109400;28;19924;-68
2023/07/03 07:30:22;;;;;;;;;;;;;;;;;;5073686;28;19931;-68
2023/07/03 07:32:49;;;;;;;;;;;;;;;;;;5095380;28;19963;-68
2023/07/03 07:35:15;;;;;;;;;;;;;;;;;;5109097;28;20061;-68
2023/07/03 07:37:41;;;;;;;;;;;;;;;;;;5100380;28;20421;-67
2023/07/03 07:40:07;;;;;;;;;;;;;;;;;;5066508;28;19924;-66
2023/07/03 07:42:33;;;;;;;;;;;;;;;;;;5088514;28;19943;-66
2023/07/03 07:44:59;;;;;;;;;;;;;;;;;;5091320;28;19997;-65
2023/07/03 07:47:25;;;;;;;;;;;;;;;;;;5109668;28;20032;-66
2023/07/03 07:49:51;;;;;;;;;;;;;;;;;;5094771;28;19924;-65
2023/07/03 07:52:17;;;;;;;;;;;;;;;;;;5085205;28;19995;-67
2023/07/03 07:54:43;;;;;;;;;;;;;;;;;;5065465;28;19924;-66
2023/07/03 07:57:09;;;;;;;;;;;;;;;;;;5097726;28;19943;-66
2023/07/03 07:59:35;;;;;;;;;;;;;;;;;;5090400;28;20366;-64
2023/07/03 08:02:01;;;;;;;;;;;;;;;;;;5094189;28;20370;-64
2023/07/03 08:04:27;;;;;;;;;;;;;;;;;;5092959;28;20006;-65
2023/07/03 08:06:52;;;;;;;;;;;;;;;;;;5113202;28;19942;-66
2023/07/03 08:09:18;;;;;;;;;;;;;;;;;;5106761;28;19927;-64
2023/07/03 08:11:44;;;;;;;;;;;;;;;;;;5090232;28;19951;-68
2023/07/03 08:14:10;;;;;;;;;;;;;;;;;;5094305;28;19920;-66
2023/07/03 08:16:36;;;;;;;;;;;;;;;;;;5093866;28;20011;-68
2023/07/03 08:19:02;;;;;;;;;;;;;;;;;;5091515;28;20414;-70
2023/07/03 08:21:28;;;;;;;;;;;;;;;;;;5100169;28;19931;-70
2023/07/03 08:23:54;;;;;;;;;;;;;;;;;;5094746;28;19920;-70
2023/07/03 08:26:20;;;;;;;;;;;;;;;;;;5097702;28;20032;-67
2023/07/03 08:28:46;;;;;;;;;;;;;;;;;;5093914;28;19985;-66
2023/07/03 08:31:12;;;;;;;;;;;;;;;;;;5087585;28;19935;-67
2023/07/03 08:33:38;;;;;;;;;;;;;;;;;;5102967;28;19946;-66
2023/07/03 08:36:05;;;;;;;;;;;;;;;;;;5092515;28;19983;-67
2023/07/03 08:38:33;;;;;;;;;;;;;;;;;;5103334;28;19923;-67
2023/07/03 08:40:59;;;;;;;;;;;;;;;;;;5094409;28;20707;-68
2023/07/03 08:43:25;;;;;;;;;;;;;;;;;;5112593;28;19923;-67
2023/07/03 08:45:52;;;;;;;;;;;;;;;;;;5099506;28;20008;-67
2023/07/03 08:48:18;;;;;;;;;;;;;;;;;;5093316;28;19928;-67
2023/07/03 08:50:43;;;;;;;;;;;;;;;;;;5099125;28;19943;-67
2023/07/03 08:53:09;;;;;;;;;;;;;;;;;;5078074;28;19980;-67
2023/07/03 08:55:35;;;;;;;;;;;;;;;;;;5082952;28;19997;-68
2023/07/03 08:58:01;;;;;;;;;;;;;;;;;;5097657;28;19927;-66
2023/07/03 09:00:27;;;;;;;;;;;;;;;;;;5082064;28;19977;-67
2023/07/03 09:02:53;;;;;;;;;;;;;;;;;;5073672;28;19924;-67
2023/07/03 09:05:20;;;;;;;;;;;;;;;;;;5091735;28;19924;-68
2023/07/03 09:07:46;;;;;;;;;;;;;;;;;;5090932;28;19956;-67
2023/07/03 09:10:12;;;;;;;;;;;;;;;;;;5091949;28;19928;-67
2023/07/03 09:12:38;;;;;;;;;;;;;;;;;;5091667;28;19931;-68
2023/07/03 09:15:04;;;;;;;;;;;;;;;;;;5091878;28;19924;-67
2023/07/03 09:17:30;;;;;;;;;;;;;;;;;;5091506;28;19943;-68
2023/07/03 09:19:56;;;;;;;;;;;;;;;;;;5091537;28;19924;-68
2023/07/03 09:22:22;;;;;;;;;;;;;;;;;;5101002;28;19919;-68
2023/07/03 09:24:48;;;;;;;;;;;;;;;;;;5108591;28;19928;-67
2023/07/03 09:27:14;;;;;;;;;;;;;;;;;;5090817;28;19948;-67
2023/07/03 09:29:40;;;;;;;;;;;;;;;;;;5091934;28;19928;-67
2023/07/03 09:32:06;;;;;;;;;;;;;;;;;;5091208;28;19986;-67
2023/07/03 09:34:32;;;;;;;;;;;;;;;;;;5095522;28;19924;-68
2023/07/03 09:37:00;;;;;;;;;;;;;;;;;;5107632;28;19985;-68
2023/07/03 09:39:26;;;;;;;;;;;;;;;;;;5067994;28;19923;-67
2023/07/03 09:41:53;;;;;;;;;;;;;;;;;;5096157;28;19928;-68
2023/07/03 09:44:19;;;;;;;;;;;;;;;;;;5111325;28;19969;-67
2023/07/03 09:46:45;;;;;;;;;;;;;;;;;;5105900;28;19923;-66
2023/07/03 09:49:11;;;;;;;;;;;;;;;;;;5106419;28;20419;-67
2023/07/03 09:51:37;;;;;;;;;;;;;;;;;;5095273;28;19920;-67
2023/07/03 09:54:03;;;;;;;;;;;;;;;;;;5101941;28;19924;-66
2023/07/03 09:56:29;;;;;;;;;;;;;;;;;;5111164;28;19962;-67
2023/07/03 09:58:55;;;;;;;;;;;;;;;;;;5105286;28;19927;-66
2023/07/03 10:01:22;;;;;;;;;;;;;;;;;;5105842;28;19928;-66
2023/07/03 10:03:48;;;;;;;;;;;;;;;;;;5089481;28;19935;-66
2023/07/03 10:06:14;;;;;;;;;;;;;;;;;;5098251;28;19923;-66
2023/07/03 10:08:40;;;;;;;;;;;;;;;;;;5111131;28;19924;-66
2023/07/03 10:11:06;;;;;;;;;;;;;;;;;;5105981;28;20002;-67
2023/07/03 10:13:32;;;;;;;;;;;;;;;;;;5096562;28;19955;-66
2023/07/03 10:15:58;;;;;;;;;;;;;;;;;;5096570;28;19951;-67
2023/07/03 10:18:24;;;;;;;;;;;;;;;;;;5090384;28;19920;-67
2023/07/03 10:20:50;;;;;;;;;;;;;;;;;;5083302;28;20080;-68
2023/07/03 10:23:16;;;;;;;;;;;;;;;;;;5072765;28;19924;-68
2023/07/03 10:25:42;;;;;;;;;;;;;;;;;;5088434;28;20062;-67
2023/07/03 10:28:08;;;;;;;;;;;;;;;;;;5090905;28;20023;-67
2023/07/03 10:30:33;;;;;;;;;;;;;;;;;;5090718;28;20423;-66
2023/07/03 10:32:59;;;;;;;;;;;;;;;;;;5087432;28;19924;-65
2023/07/03 10:35:27;;;;;;;;;;;;;;;;;;5077856;28;19939;-62
2023/07/03 10:37:53;;;;;;;;;;;;;;;;;;5078150;28;19920;-67
2023/07/03 10:40:19;;;;;;;;;;;;;;;;;;5076930;28;19920;-66
2023/07/03 10:42:45;;;;;;;;;;;;;;;;;;5085991;28;19977;-65
2023/07/03 10:45:11;;;;;;;;;;;;;;;;;;5092084;28;19928;-64
2023/07/03 10:47:37;;;;;;;;;;;;;;;;;;5067271;28;19946;-64
2023/07/03 10:50:03;;;;;;;;;;;;;;;;;;5081097;28;20282;-64
2023/07/03 10:52:30;;;;;;;;;;;;;;;;;;5107678;28;19984;-64
2023/07/03 10:54:56;;;;;;;;;;;;;;;;;;5109855;28;20480;-64
2023/07/03 10:57:22;;;;;;;;;;;;;;;;;;5105735;28;19985;-64
2023/07/03 10:59:48;;;;;;;;;;;;;;;;;;5103541;28;19924;-64
2023/07/03 11:02:15;;;;;;;;;;;;;;;;;;5100159;28;20459;-64
2023/07/03 11:04:41;;;;;;;;;;;;;;;;;;5110453;28;20667;-64
2023/07/03 11:07:07;;;;;;;;;;;;;;;;;;5076887;28;19920;-64
2023/07/03 11:09:33;;;;;;;;;;;;;;;;;;5089065;28;19951;-64
2023/07/03 11:11:59;;;;;;;;;;;;;;;;;;5079307;28;19924;-64
2023/07/03 11:14:25;;;;;;;;;;;;;;;;;;5083271;28;20103;-64
2023/07/03 11:16:51;;;;;;;;;;;;;;;;;;5090709;28;20320;-64
2023/07/03 11:19:17;;;;;;;;;;;;;;;;;;5102744;28;19930;-64
2023/07/03 11:21:43;;;;;;;;;;;;;;;;;;5092401;28;19985;-64
2023/07/03 11:24:09;;;;;;;;;;;;;;;;;;5096451;28;19943;-64
2023/07/03 11:26:36;;;;;;;;;;;;;;;;;;5078313;28;20274;-67
2023/07/03 11:29:02;;;;;;;;;;;;;;;;;;5090810;28;19932;-65
2023/07/03 11:31:29;;;;;;;;;;;;;;;;;;5092549;28;19931;-67
2023/07/03 11:33:55;;;;;;;;;;;;;;;;;;5083713;28;19920;-64
2023/07/03 11:36:21;;;;;;;;;;;;;;;;;;5079517;28;20030;-61
2023/07/03 11:38:47;;;;;;;;;;;;;;;;;;5091798;28;20034;-62
2023/07/03 11:41:13;;;;;;;;;;;;;;;;;;5085359;28;19959;-63
2023/07/03 11:43:41;;;;;;;;;;;;;;;;;;5080197;28;19962;-62
2023/07/03 11:46:07;;;;;;;;;;;;;;;;;;5089781;28;19924;-65
2023/07/03 11:48:33;;;;;;;;;;;;;;;;;;5070112;28;19924;-64
2023/07/03 11:50:59;;;;;;;;;;;;;;;;;;5080370;28;19925;-62
2023/07/03 11:53:25;;;;;;;;;;;;;;;;;;5078921;28;19924;-62
2023/07/03 11:55:51;;;;;;;;;;;;;;;;;;5060661;28;19950;-66
2023/07/03 11:58:17;;;;;;;;;;;;;;;;;;5089212;28;19923;-66
2023/07/03 12:00:43;;;;;;;;;;;;;;;;;;5090826;28;20032;-63
2023/07/03 12:03:10;;;;;;;;;;;;;;;;;;5074990;28;19920;-63
2023/07/03 12:05:36;;;;;;;;;;;;;;;;;;5090672;28;19983;-61
2023/07/03 12:08:02;;;;;;;;;;;;;;;;;;5051321;28;19979;-61
2023/07/03 12:10:27;;;;;;;;;;;;;;;;;;5086593;28;19943;-63
2023/07/03 12:12:53;;;;;;;;;;;;;;;;;;5093797;28;19924;-61
2023/07/03 12:15:19;;;;;;;;;;;;;;;;;;5101256;28;19989;-62
2023/07/03 12:17:45;;;;;;;;;;;;;;;;;;5076534;28;19964;-61
2023/07/03 12:20:11;;;;;;;;;;;;;;;;;;5109886;28;19966;-62
2023/07/03 12:22:38;;;;;;;;;;;;;;;;;;5091436;28;19928;-64
2023/07/03 12:25:04;;;;;;;;;;;;;;;;;;5078991;28;20350;-63
2023/07/03 12:27:30;;;;;;;;;;;;;;;;;;5103764;28;19930;-64
2023/07/03 12:29:56;;;;;;;;;;;;;;;;;;5107130;28;19924;-63
2023/07/03 12:32:22;;;;;;;;;;;;;;;;;;5106508;28;19935;-63
2023/07/03 12:34:49;;;;;;;;;;;;;;;;;;5068573;28;19924;-61
2023/07/03 12:37:15;;;;;;;;;;;;;;;;;;5080822;28;19956;-62
2023/07/03 12:39:41;;;;;;;;;;;;;;;;;;5081283;28;19963;-61
2023/07/03 12:42:07;;;;;;;;;;;;;;;;;;5085737;28;19980;-63
2023/07/03 12:44:33;;;;;;;;;;;;;;;;;;5093418;28;19920;-62
2023/07/03 12:46:59;;;;;;;;;;;;;;;;;;5086273;28;20289;-61
2023/07/03 12:49:25;;;;;;;;;;;;;;;;;;5088997;28;19924;-61
2023/07/03 12:51:51;;;;;;;;;;;;;;;;;;5070761;28;19924;-61
2023/07/03 12:54:17;;;;;;;;;;;;;;;;;;5086878;28;19920;-61
2023/07/03 12:56:44;;;;;;;;;;;;;;;;;;5100110;28;19920;-63
2023/07/03 12:59:10;;;;;;;;;;;;;;;;;;5099707;28;19981;-62
2023/07/03 13:01:36;;;;;;;;;;;;;;;;;;5097407;28;20026;-61
2023/07/03 13:04:01;;;;;;;;;;;;;;;;;;5082247;28;19931;-60
2023/07/03 13:06:28;;;;;;;;;;;;;;;;;;5088339;28;19935;-61
2023/07/03 13:08:54;;;;;;;;;;;;;;;;;;5099850;28;20390;-62
2023/07/03 13:11:20;;;;;;;;;;;;;;;;;;5093056;28;19924;-61
2023/07/03 13:13:46;;;;;;;;;;;;;;;;;;5085562;28;19928;-61
2023/07/03 13:16:12;;;;;;;;;;;;;;;;;;5077632;28;19932;-62
2023/07/03 13:18:38;;;;;;;;;;;;;;;;;;5085205;28;19920;-61
2023/07/03 13:21:04;;;;;;;;;;;;;;;;;;5093487;28;19942;-62
2023/07/03 13:23:30;;;;;;;;;;;;;;;;;;5088945;28;20014;-63
2023/07/03 13:25:56;;;;;;;;;;;;;;;;;;5088678;28;20023;-62
2023/07/03 13:28:22;;;;;;;;;;;;;;;;;;5094134;28;19928;-64
2023/07/03 13:30:48;;;;;;;;;;;;;;;;;;5092121;28;19981;-61
2023/07/03 13:33:14;;;;;;;;;;;;;;;;;;5077749;28;20512;-62
2023/07/03 13:35:40;;;;;;;;;;;;;;;;;;5083042;28;19921;-62
2023/07/03 13:38:06;;;;;;;;;;;;;;;;;;5094351;28;19924;-63
2023/07/03 13:40:32;;;;;;;;;;;;;;;;;;5091390;28;19928;-62
2023/07/03 13:42:58;;;;;;;;;;;;;;;;;;5096864;28;20077;-63
2023/07/03 13:45:24;;;;;;;;;;;;;;;;;;5081966;28;19958;-63
2023/07/03 13:47:49;;;;;;;;;;;;;;;;;;5073383;28;20044;-63
2023/07/03 13:50:15;;;;;;;;;;;;;;;;;;5078594;28;19955;-61
2023/07/03 13:52:41;;;;;;;;;;;;;;;;;;5086216;28;19986;-64
2023/07/03 13:55:07;;;;;;;;;;;;;;;;;;5089092;28;19942;-64
2023/07/03 13:57:33;;;;;;;;;;;;;;;;;;5073874;28;19920;-64
2023/07/03 13:59:59;;;;;;;;;;;;;;;;;;5091841;28;19920;-61
2023/07/03 14:02:25;;;;;;;;;;;;;;;;;;5081570;28;19924;-65
2023/07/03 14:04:51;;;;;;;;;;;;;;;;;;5094231;28;20372;-65
2023/07/03 14:07:17;;;;;;;;;;;;;;;;;;5096465;28;19931;-65
2023/07/03 14:09:43;;;;;;;;;;;;;;;;;;5091700;28;19999;-64
2023/07/03 14:12:09;;;;;;;;;;;;;;;;;;5091906;28;19920;-62
2023/07/03 14:14:35;;;;;;;;;;;;;;;;;;5091694;28;19925;-63
2023/07/03 14:17:01;;;;;;;;;;;;;;;;;;5091470;28;19992;-62
2023/07/03 14:19:27;;;;;;;;;;;;;;;;;;5091472;28;19924;-64
2023/07/03 14:21:53;;;;;;;;;;;;;;;;;;5091192;28;19951;-63
2023/07/03 14:24:19;;;;;;;;;;;;;;;;;;5090945;28;19928;-64
2023/07/03 14:26:45;;;;;;;;;;;;;;;;;;5091246;28;19985;-65
2023/07/03 14:29:11;;;;;;;;;;;;;;;;;;5091617;28;19928;-66
2023/07/03 14:31:37;;;;;;;;;;;;;;;;;;5091128;28;20444;-66
2023/07/03 14:34:03;;;;;;;;;;;;;;;;;;5090764;28;19923;-62
2023/07/03 14:36:29;;;;;;;;;;;;;;;;;;5091596;28;20018;-64
2023/07/03 14:38:55;;;;;;;;;;;;;;;;;;5083717;28;19998;-65
2023/07/03 14:41:21;;;;;;;;;;;;;;;;;;5112109;28;19919;-66
2023/07/03 14:43:47;;;;;;;;;;;;;;;;;;5093557;28;19920;-66
2023/07/03 14:46:13;;;;;;;;;;;;;;;;;;5110783;28;20010;-67
2023/07/03 14:48:39;;;;;;;;;;;;;;;;;;5111969;28;20339;-67
2023/07/03 14:51:05;;;;;;;;;;;;;;;;;;5081057;28;20018;-67
2023/07/03 14:53:31;;;;;;;;;;;;;;;;;;5090711;28;19988;-63
2023/07/03 14:55:58;;;;;;;;;;;;;;;;;;5091271;28;19919;-64
2023/07/03 14:58:24;;;;;;;;;;;;;;;;;;5091550;28;19981;-64
2023/07/03 15:00:50;;;;;;;;;;;;;;;;;;5091398;28;19924;-64
2023/07/03 15:03:16;;;;;;;;;;;;;;;;;;5072897;28;19927;-64
2023/07/03 15:05:42;;;;;;;;;;;;;;;;;;5090425;28;20282;-64
2023/07/03 15:08:08;;;;;;;;;;;;;;;;;;5090772;28;20377;-64
2023/07/03 15:10:34;;;;;;;;;;;;;;;;;;5091273;28;20573;-64
2023/07/03 15:13:03;;;;;;;;;;;;;;;;;;5091362;28;19924;-64
2023/07/03 15:15:29;;;;;;;;;;;;;;;;;;5090778;28;19970;-64
2023/07/03 15:17:55;;;;;;;;;;;;;;;;;;5090876;28;20385;-64
2023/07/03 15:20:21;;;;;;;;;;;;;;;;;;5091242;28;19924;-64
2023/07/03 15:22:47;;;;;;;;;;;;;;;;;;5090613;28;19920;-64
2023/07/03 15:25:13;;;;;;;;;;;;;;;;;;5088262;28;19968;-64
2023/07/03 15:27:39;;;;;;;;;;;;;;;;;;5052445;28;19995;-64
2023/07/03 15:30:05;;;;;;;;;;;;;;;;;;5052343;28;19951;-64
2023/07/03 15:32:30;;;;;;;;;;;;;;;;;;5089192;28;19924;-64
2023/07/03 15:34:56;;;;;;;;;;;;;;;;;;5090526;28;19974;-64
2023/07/03 15:37:22;;;;;;;;;;;;;;;;;;5090054;28;19959;-64
2023/07/03 15:39:48;;;;;;;;;;;;;;;;;;5090755;28;19958;-64
2023/07/03 15:42:14;;;;;;;;;;;;;;;;;;5090702;28;19920;-64
2023/07/03 15:44:40;;;;;;;;;;;;;;;;;;5090215;28;19924;-64
2023/07/03 15:47:07;;;;;;;;;;;;;;;;;;5072802;28;19931;-64
2023/07/03 15:49:35;;;;;;;;;;;;;;;;;;5090663;28;20355;-64
2023/07/03 15:52:01;;;;;;;;;;;;;;;;;;5090033;28;19924;-64
2023/07/03 15:54:27;;;;;;;;;;;;;;;;;;5072243;28;19992;-64
2023/07/03 15:56:53;;;;;;;;;;;;;;;;;;5090649;28;20371;-64
2023/07/03 15:59:19;;;;;;;;;;;;;;;;;;5090231;28;20003;-64
2023/07/03 16:01:45;;;;;;;;;;;;;;;;;;5090721;28;20010;-64
2023/07/03 16:04:11;;;;;;;;;;;;;;;;;;5090547;28;19924;-64
2023/07/03 16:06:37;;;;;;;;;;;;;;;;;;5090212;28;19932;-64
2023/07/03 16:09:03;;;;;;;;;;;;;;;;;;5090490;28;20033;-64
2023/07/03 16:11:29;;;;;;;;;;;;;;;;;;5090588;28;20256;-64
2023/07/03 16:13:55;;;;;;;;;;;;;;;;;;5089997;28;20263;-64
2023/07/03 16:16:21;;;;;;;;;;;;;;;;;;5090603;28;19927;-64
2023/07/03 16:18:47;;;;;;;;;;;;;;;;;;5094639;28;19971;-64
2023/07/03 16:21:13;;;;;;;;;;;;;;;;;;5093864;28;19970;-64
2023/07/03 16:23:39;;;;;;;;;;;;;;;;;;5094178;28;19924;-64
2023/07/03 16:26:05;;;;;;;;;;;;;;;;;;5084029;28;19936;-64
2023/07/03 16:28:31;;;;;;;;;;;;;;;;;;5073437;28;19928;-64
2023/07/03 16:30:58;;;;;;;;;;;;;;;;;;5079560;28;20044;-64
2023/07/03 16:33:23;;;;;;;;;;;;;;;;;;5094324;28;20015;-64
2023/07/03 16:35:49;;;;;;;;;;;;;;;;;;5093395;28;20630;-64
2023/07/03 16:38:15;;;;;;;;;;;;;;;;;;5094087;28;19962;-64